Time;durP1;ratioP1;P1;durP2;ratioP2;P2;SDS_P1;SDS_P2;PMS_P1;PMS_P2;Temp;Humidity;BMP_temperature;BMP_pressure;BME280_temperature;BME280_humidity;BME280_pressure;Samples;Min_cycle;Max_cycle;Signal;HPM_P1;HPM_P2
2021/12/12 00:01:05;;;;;;;63.22;28.20;;;;;;;5.00;55.37;101847.44;6096405;23;96992;-78
2021/12/12 00:03:38;;;;;;;56.67;26.77;;;;;;;5.05;55.38;101855.34;6095771;23;96619;-77
2021/12/12 00:06:08;;;;;;;60.50;25.10;;;;;;;5.19;54.83;101856.25;6094147;23;99813;-78
2021/12/12 00:08:36;;;;;;;65.60;27.65;;;;;;;4.98;55.75;101856.19;6094851;23;99200;-76
2021/12/12 00:11:08;;;;;;;59.38;27.35;;;;;;;4.85;56.03;101852.63;6095173;23;97100;-77
2021/12/12 00:13:37;;;;;;;58.08;26.83;;;;;;;4.99;55.85;101863.19;6095189;23;96934;-81
2021/12/12 00:16:07;;;;;;;61.35;28.13;;;;;;;4.68;56.18;101856.88;6095492;23;97743;-81
2021/12/12 00:18:34;;;;;;;62.33;27.80;;;;;;;4.89;56.18;101851.78;6097080;23;100674;-78
2021/12/12 00:21:01;;;;;;;65.93;27.92;;;;;;;4.58;56.77;101858.59;6097324;23;96661;-82
2021/12/12 00:23:27;;;;;;;55.92;27.17;;;;;;;4.65;56.56;101865.63;6098585;23;96586;-81
2021/12/12 00:25:58;;;;;;;56.20;26.92;;;;;;;4.68;56.67;101859.50;6107151;23;97879;-80
2021/12/12 00:28:26;;;;;;;56.45;26.67;;;;;;;4.56;56.82;101868.16;6114745;23;99139;-77
2021/12/12 00:30:56;;;;;;;56.03;26.15;;;;;;;4.72;56.29;101867.41;6115738;23;96434;-82
2021/12/12 00:33:25;;;;;;;55.85;25.73;;;;;;;4.96;55.64;101878.88;6117474;23;96312;-78
2021/12/12 00:35:52;;;;;;;59.45;26.92;;;;;;;4.86;55.94;101871.84;6108689;23;99222;-77
2021/12/12 00:38:25;;;;;;;52.60;26.13;;;;;;;4.95;55.27;101882.34;6111034;23;96843;-79
2021/12/12 00:40:54;;;;;;;55.30;26.48;;;;;;;5.13;55.82;101885.94;6104801;23;96543;-81
2021/12/12 00:43:24;;;;;;;52.78;25.27;;;;;;;4.94;55.37;101896.31;6099918;23;96768;-80
2021/12/12 00:45:54;;;;;;;47.92;24.08;;;;;;;4.98;55.49;101898.97;6100714;23;99084;-80
2021/12/12 00:48:24;;;;;;;50.95;24.73;;;;;;;5.35;55.08;101901.78;6098740;23;98472;-80
2021/12/12 00:50:52;;;;;;;52.80;24.55;;;;;;;5.17;54.75;101900.84;6097242;23;96743;-80
2021/12/12 00:53:22;;;;;;;60.60;27.23;;;;;;;5.39;54.70;101914.00;6096546;23;96710;-80
2021/12/12 00:55:50;;;;;;;51.58;24.80;;;;;;;5.25;54.51;101913.94;6095274;23;97879;-78
2021/12/12 00:58:19;;;;;;;52.20;24.67;;;;;;;5.42;55.00;101909.66;6096790;23;98888;-80
2021/12/12 01:00:52;;;;;;;56.53;25.85;;;;;;;5.53;54.04;101907.06;6098227;23;96514;-78
2021/12/12 01:03:22;;;;;;;53.17;25.58;;;;;;;5.53;53.88;101899.22;6096797;23;96640;-82
2021/12/12 01:05:52;;;;;;;52.13;25.35;;;;;;;5.42;53.88;101893.06;6095033;23;99229;-82
2021/12/12 01:08:19;;;;;;;50.80;24.30;;;;;;;5.21;53.97;101894.72;6095777;23;101251;-81
2021/12/12 01:10:51;;;;;;;47.22;23.85;;;;;;;5.19;55.02;101899.06;6096365;23;96772;-81
2021/12/12 01:13:22;;;;;;;50.40;24.75;;;;;;;5.43;54.34;101905.31;6096494;23;96528;-80
2021/12/12 01:15:51;;;;;;;51.70;25.05;;;;;;;5.38;53.86;101904.41;6096165;23;100397;-81
2021/12/12 01:18:21;;;;;;;50.92;25.52;;;;;;;5.17;54.26;101899.94;6096066;23;101264;-82
2021/12/12 01:20:53;;;;;;;48.70;24.30;;;;;;;5.32;54.13;101902.63;6095414;23;96666;-81
2021/12/12 01:23:26;;;;;;;46.95;23.98;;;;;;;5.07;54.67;101903.38;6097262;23;96666;-81
2021/12/12 01:25:55;;;;;;;48.92;24.48;;;;;;;5.13;54.31;101906.03;6095784;23;98868;-76
2021/12/12 01:28:24;;;;;;;46.45;24.40;;;;;;;5.03;54.97;101907.75;6095568;23;101388;-81
2021/12/12 01:30:53;;;;;;;52.97;25.55;;;;;;;5.12;54.83;101905.16;6095991;23;96568;-81
2021/12/12 01:33:32;;;;;;;50.90;25.25;;;;;;;5.27;54.20;101904.34;6095606;23;96949;-82
2021/12/12 01:36:01;;;;;;;49.80;23.98;;;;;;;5.02;54.77;101907.72;6095875;23;99278;-82
2021/12/12 01:41:13;;;;;;;50.30;22.83;;;;;;;4.79;54.02;101889.28;6095933;23;96455;-81
2021/12/12 01:43:44;;;;;;;54.55;25.10;;;;;;;4.94;55.67;101902.44;6096246;23;96874;-78
2021/12/12 01:46:18;;;;;;;46.55;24.20;;;;;;;4.99;55.19;101905.09;6092488;23;99006;-79
2021/12/12 01:48:48;;;;;;;47.22;22.83;;;;;;;4.99;54.88;101908.56;6094730;23;99281;-78
2021/12/12 01:51:17;;;;;;;49.72;24.13;;;;;;;4.91;55.47;101906.78;6093379;23;96613;-80
2021/12/12 01:53:48;;;;;;;49.20;23.45;;;;;;;5.13;54.59;101906.03;6094867;23;96789;-81
2021/12/12 01:56:18;;;;;;;52.33;25.33;;;;;;;5.00;54.88;101912.94;6094252;23;98845;-81
2021/12/12 01:58:49;;;;;;;50.28;24.98;;;;;;;5.18;54.92;101906.94;6092697;23;100940;-81
2021/12/12 02:01:19;;;;;;;48.53;24.38;;;;;;;5.31;54.42;101907.88;6096833;23;96586;-82
2021/12/12 02:03:49;;;;;;;43.83;23.38;;;;;;;5.41;53.57;101907.03;6096562;23;96673;-76
2021/12/12 02:06:20;;;;;;;51.97;24.15;;;;;;;5.18;53.90;101897.34;6098120;23;96633;-78
2021/12/12 02:08:49;;;;;;;46.15;22.65;;;;;;;5.06;53.99;101899.88;6095107;23;100290;-79
2021/12/12 02:11:20;;;;;;;46.80;22.10;;;;;;;5.14;54.48;101895.56;6094147;23;96625;-78
2021/12/12 02:13:50;;;;;;;52.17;23.08;;;;;;;5.08;54.46;101895.53;6100011;23;96721;-81
2021/12/12 02:16:19;;;;;;;48.42;22.15;;;;;;;5.36;53.60;101898.28;6098640;23;98953;-80
2021/12/12 02:18:50;;;;;;;47.05;23.35;;;;;;;5.42;53.14;101895.69;6103151;23;97971;-81
2021/12/12 02:21:25;;;;;;;48.00;22.80;;;;;;;5.47;53.67;101891.31;6106578;23;97041;-78
2021/12/12 02:24:33;;;;;;;45.50;23.10;;;;;;;5.30;53.20;101903.50;6105955;23;96938;-82
2021/12/12 02:35:42;;;;;;;42.03;22.15;;;;;;;5.19;53.78;101903.44;6110260;23;96321;-79
2021/12/12 02:38:09;;;;;;;47.42;23.52;;;;;;;5.37;52.76;101906.16;6114987;23;98520;-77
2021/12/12 02:40:41;;;;;;;42.85;21.48;;;;;;;5.20;53.50;101916.56;6113099;23;96418;-77
2021/12/12 02:43:08;;;;;;;41.17;22.73;;;;;;;5.45;52.60;101914.03;6108528;23;96521;-77
2021/12/12 02:45:36;;;;;;;46.75;22.77;;;;;;;5.34;53.09;101918.34;6097146;23;96799;-77
2021/12/12 02:48:06;;;;;;;43.78;23.02;;;;;;;5.33;53.26;101920.09;6096172;23;100848;-77
2021/12/12 02:50:37;;;;;;;42.05;22.85;;;;;;;5.27;53.39;101929.69;6096361;23;99180;-78
2021/12/12 02:53:06;;;;;;;49.03;24.08;;;;;;;5.24;53.62;101927.06;6101264;23;96639;-76
2021/12/12 02:55:36;;;;;;;46.38;21.58;;;;;;;5.31;52.77;101929.72;6097682;23;97282;-78
2021/12/12 02:58:08;;;;;;;40.42;21.20;;;;;;;5.19;53.48;101930.50;6094879;23;98765;-76
2021/12/12 03:00:44;;;;;;;43.40;20.98;;;;;;;5.26;53.11;101930.53;6094710;23;96672;-77
2021/12/12 03:03:11;;;;;;;40.90;21.58;;;;;;;5.29;53.35;101926.22;6093948;23;96684;-80
2021/12/12 03:05:43;;;;;;;42.90;21.52;;;;;;;5.12;53.11;101933.97;6092698;23;96916;-77
2021/12/12 03:08:10;;;;;;;42.75;22.25;;;;;;;5.33;52.99;101930.59;6092230;23;99552;-77
2021/12/12 03:10:40;;;;;;;43.90;21.58;;;;;;;5.43;52.67;101934.13;6092381;23;98756;-77
2021/12/12 03:13:10;;;;;;;43.75;21.70;;;;;;;5.40;52.85;101936.72;6092385;23;96581;-77
2021/12/12 03:15:40;;;;;;;41.20;22.02;;;;;;;5.24;53.29;101929.69;6091615;23;96916;-76
2021/12/12 03:18:11;;;;;;;41.83;22.75;;;;;;;5.24;53.01;101932.31;6091849;23;97243;-77
2021/12/12 03:20:41;;;;;;;41.67;21.08;;;;;;;5.21;53.19;101939.28;6092553;23;98918;-80
2021/12/12 03:23:15;;;;;;;44.83;22.33;;;;;;;5.40;53.46;101948.09;6091987;23;96953;-78
2021/12/12 03:25:42;;;;;;;43.55;22.80;;;;;;;5.50;53.11;101943.78;6091538;23;96767;-77
2021/12/12 03:28:13;;;;;;;42.72;21.38;;;;;;;5.31;52.72;101934.09;6090646;23;98857;-77
2021/12/12 03:30:42;;;;;;;41.88;21.15;;;;;;;5.52;53.09;101942.03;6091993;23;100461;-76
2021/12/12 03:33:09;;;;;;;42.50;20.60;;;;;;;5.56;52.74;101947.31;6091709;23;96627;-77
2021/12/12 03:35:36;;;;;;;40.28;21.73;;;;;;;5.39;53.13;101946.34;6091035;23;97371;-77
2021/12/12 03:38:04;;;;;;;40.45;21.33;;;;;;;5.52;52.67;101939.41;6092211;23;99874;-77
2021/12/12 03:40:37;;;;;;;40.15;21.27;;;;;;;5.51;52.67;101941.16;6091461;23;101478;-77
2021/12/12 03:43:06;;;;;;;39.90;21.67;;;;;;;5.41;52.58;101951.59;6093218;23;97066;-82
2021/12/12 03:45:35;;;;;;;37.33;21.13;;;;;;;5.57;52.69;101940.31;6092344;23;96784;-77
2021/12/12 03:48:07;;;;;;;46.25;21.05;;;;;;;5.52;52.64;101953.41;6091877;23;99387;-77
2021/12/12 03:50:36;;;;;;;40.75;20.67;;;;;;;5.68;52.80;101956.97;6095722;23;101217;-77
2021/12/12 03:53:05;;;;;;;39.22;20.48;;;;;;;5.69;52.57;101953.47;6097004;23;96673;-77
2021/12/12 03:55:33;;;;;;;40.30;21.05;;;;;;;5.74;53.02;101949.13;6102620;23;96732;-76
2021/12/12 03:58:00;;;;;;;40.08;20.95;;;;;;;5.71;51.97;101951.72;6111262;23;97581;-77
2021/12/12 04:00:30;;;;;;;41.30;21.90;;;;;;;5.57;52.54;101953.44;6112860;23;97923;-78
2021/12/12 04:02:59;;;;;;;45.33;21.98;;;;;;;5.44;52.24;101956.88;6111895;23;96450;-82
2021/12/12 04:05:28;;;;;;;43.28;20.92;;;;;;;5.54;52.91;101956.91;6107274;23;97139;-77
2021/12/12 04:07:55;;;;;;;40.75;22.50;;;;;;;5.72;52.72;101958.72;6093340;23;98918;-78
2021/12/12 04:10:24;;;;;;;40.90;20.83;;;;;;;5.73;52.31;101959.59;6091742;23;98952;-77
2021/12/12 04:12:52;;;;;;;41.28;21.00;;;;;;;5.69;53.12;101955.22;6092143;23;96606;-77
2021/12/12 04:15:19;;;;;;;41.35;21.85;;;;;;;5.60;52.36;101958.69;6091542;23;96852;-77
2021/12/12 04:17:47;;;;;;;42.10;21.42;;;;;;;5.45;52.51;101955.97;6090877;23;98817;-78
2021/12/12 04:20:19;;;;;;;44.22;21.92;;;;;;;5.63;52.65;101960.44;6091739;23;98777;-78
2021/12/12 04:22:45;;;;;;;39.50;20.75;;;;;;;5.58;52.44;101970.88;6093400;23;96442;-78
2021/12/12 04:25:13;;;;;;;45.03;22.42;;;;;;;5.58;53.21;101970.88;6095330;23;97150;-78
2021/12/12 04:27:40;;;;;;;41.75;20.55;;;;;;;5.54;53.20;101972.63;6106310;23;99001;-78
2021/12/12 04:30:09;;;;;;;45.83;24.17;;;;;;;5.55;52.61;101982.25;6112534;23;98087;-78
2021/12/12 04:32:36;;;;;;;44.30;22.35;;;;;;;5.65;52.89;101983.16;6115520;23;95802;-79
2021/12/12 04:35:07;;;;;;;53.35;26.85;;;;;;;5.73;52.81;101986.69;6113162;23;96319;-78
2021/12/12 04:37:35;;;;;;;44.42;21.52;;;;;;;5.76;52.91;101991.09;6118084;23;97825;-77
2021/12/12 04:40:02;;;;;;;38.35;20.33;;;;;;;5.85;52.85;101984.13;6118421;23;97669;-77
2021/12/12 04:42:32;;;;;;;39.65;19.63;;;;;;;5.80;52.99;101980.59;6118571;23;95815;-76
2021/12/12 04:45:11;;;;;;;42.25;21.35;;;;;;;5.76;53.12;101984.09;6117732;23;95985;-77
2021/12/12 04:50:34;;;;;;;41.38;21.02;;;;;;;5.95;53.86;101988.56;6118242;23;96395;-77
2021/12/12 04:53:07;;;;;;;38.80;21.52;;;;;;;5.96;53.42;101979.84;6108660;23;96557;-77
2021/12/12 04:55:38;;;;;;;39.08;19.92;;;;;;;5.98;53.77;101978.06;6094504;23;96619;-77
2021/12/12 04:58:10;;;;;;;40.92;20.83;;;;;;;6.07;53.35;101977.22;6093331;23;100295;-77
2021/12/12 05:00:42;;;;;;;43.85;21.88;;;;;;;6.10;53.22;101981.63;6092531;23;101696;-78
2021/12/12 05:03:14;;;;;;;41.60;20.92;;;;;;;6.19;53.16;101986.88;6093834;23;96582;-76
2021/12/12 05:05:47;;;;;;;37.83;20.50;;;;;;;6.22;53.19;101984.28;6092956;23;97252;-78
2021/12/12 05:08:24;;;;;;;42.15;21.33;;;;;;;6.31;52.68;101986.88;6092968;23;103169;-78
2021/12/12 05:10:56;;;;;;;41.25;20.80;;;;;;;6.30;52.48;101990.41;6094656;23;98766;-76
2021/12/12 05:13:25;;;;;;;41.35;20.63;;;;;;;6.33;52.77;101995.66;6098857;23;96577;-77
2021/12/12 05:15:57;;;;;;;42.70;21.42;;;;;;;6.19;53.24;101994.75;6093923;23;96559;-82
2021/12/12 05:18:30;;;;;;;39.85;19.17;;;;;;;6.30;52.62;101985.16;6092254;23;101239;-82
2021/12/12 05:21:00;;;;;;;45.60;20.98;;;;;;;6.22;52.92;101986.91;6093292;23;99527;-77
2021/12/12 05:23:31;;;;;;;39.85;20.27;;;;;;;6.30;53.20;101990.41;6093773;23;96719;-77
2021/12/12 05:26:00;;;;;;;43.58;21.10;;;;;;;6.42;52.69;101993.06;6092864;23;97374;-77
2021/12/12 05:28:29;;;;;;;47.28;22.30;;;;;;;6.43;52.97;101996.56;6091134;23;99275;-77
2021/12/12 05:31:00;;;;;;;52.30;24.80;;;;;;;6.39;53.01;101985.16;6092065;23;98955;-82
2021/12/12 05:33:28;;;;;;;45.65;22.20;;;;;;;6.41;53.41;101988.66;6091825;23;97043;-76
2021/12/12 05:35:55;;;;;;;48.70;22.05;;;;;;;6.37;53.13;101986.91;6092117;23;97179;-78
2021/12/12 05:38:22;;;;;;;44.92;22.67;;;;;;;6.35;53.34;101988.66;6093990;23;99828;-77
2021/12/12 05:40:52;;;;;;;56.20;24.08;;;;;;;6.22;53.76;102000.00;6094955;23;98698;-77
2021/12/12 05:43:20;;;;;;;52.55;23.27;;;;;;;6.15;53.66;101995.63;6105325;23;96513;-77
2021/12/12 05:45:52;;;;;;;49.80;22.98;;;;;;;6.24;54.24;101996.50;6117667;23;95901;-77
2021/12/12 05:48:21;;;;;;;52.75;23.23;;;;;;;6.35;53.54;101993.91;6118824;23;98035;-83
2021/12/12 05:50:49;;;;;;;47.10;22.20;;;;;;;6.21;54.09;102003.50;6119097;23;97663;-77
2021/12/12 05:53:17;;;;;;;48.22;23.05;;;;;;;6.37;53.65;102014.03;6117682;23;96264;-78
2021/12/12 05:55:46;;;;;;;47.70;23.08;;;;;;;6.23;53.74;102010.53;6097703;23;96882;-78
2021/12/12 05:58:18;;;;;;;54.50;23.13;;;;;;;6.29;53.54;102009.66;6092456;23;98305;-77
2021/12/12 06:00:48;;;;;;;53.35;23.02;;;;;;;6.21;53.93;102019.25;6092164;23;98750;-77
2021/12/12 06:03:18;;;;;;;54.03;24.23;;;;;;;6.03;53.90;102006.09;6092506;23;96993;-77
2021/12/12 06:05:45;;;;;;;47.20;21.70;;;;;;;6.17;53.84;101996.50;6091004;23;96745;-77
2021/12/12 06:08:12;;;;;;;45.40;22.88;;;;;;;6.16;54.09;102002.63;6090797;23;98922;-77
2021/12/12 06:10:41;;;;;;;51.30;23.13;;;;;;;6.27;53.10;101995.66;6091025;23;99234;-78
2021/12/12 06:13:14;;;;;;;42.17;22.25;;;;;;;6.10;53.10;101990.38;6091914;23;96589;-77
2021/12/12 06:15:45;;;;;;;43.17;22.55;;;;;;;6.06;53.33;101998.22;6092552;23;96631;-77
2021/12/12 06:18:12;;;;;;;46.72;22.70;;;;;;;6.05;53.04;102002.56;6091685;23;98814;-77
2021/12/12 06:20:41;;;;;;;45.85;22.15;;;;;;;5.96;53.54;102003.44;6092300;23;97523;-76
2021/12/12 06:23:09;;;;;;;45.20;21.33;;;;;;;5.77;53.71;101998.97;6091625;23;96974;-78
2021/12/12 06:25:37;;;;;;;47.90;21.60;;;;;;;5.99;53.53;102000.81;6092165;23;97211;-78
2021/12/12 06:28:08;;;;;;;44.63;21.77;;;;;;;5.82;53.80;101997.25;6091752;23;101543;-77
2021/12/12 06:30:35;;;;;;;39.28;20.75;;;;;;;5.87;53.44;101992.91;6092186;23;99959;-77
2021/12/12 06:33:04;;;;;;;44.40;20.75;;;;;;;6.07;53.35;101999.97;6091997;23;96653;-78
2021/12/12 06:35:31;;;;;;;42.65;21.33;;;;;;;5.93;52.55;101995.56;6091458;23;96949;-77
2021/12/12 06:38:01;;;;;;;37.63;20.50;;;;;;;6.02;52.22;101996.47;6091290;23;100094;-78
2021/12/12 06:40:29;;;;;;;41.00;20.63;;;;;;;5.94;52.80;102004.31;6092224;23;98792;-78
2021/12/12 06:42:56;;;;;;;43.92;22.65;;;;;;;5.73;53.34;102007.69;6092554;23;96725;-78
2021/12/12 06:45:24;;;;;;;38.35;21.48;;;;;;;6.02;52.76;102014.81;6091448;23;96844;-78
2021/12/12 06:47:51;;;;;;;41.88;21.33;;;;;;;5.96;52.13;102016.56;6091061;23;98615;-78
2021/12/12 06:50:20;;;;;;;42.08;20.90;;;;;;;6.08;52.51;102012.22;6091725;23;98757;-78
2021/12/12 06:52:48;;;;;;;41.47;19.88;;;;;;;5.75;52.00;102015.56;6092562;23;96669;-79
2021/12/12 06:55:15;;;;;;;42.65;21.17;;;;;;;5.67;52.25;102004.16;6091969;23;96758;-79
2021/12/12 06:57:43;;;;;;;46.67;22.15;;;;;;;5.75;53.03;102005.94;6092604;23;99219;-77
2021/12/12 07:00:13;;;;;;;41.15;21.35;;;;;;;5.87;52.68;102012.97;6091496;23;98958;-78
2021/12/12 07:02:41;;;;;;;43.47;20.45;;;;;;;5.85;51.43;102014.72;6092102;23;96612;-78
2021/12/12 07:05:11;;;;;;;40.13;20.50;;;;;;;5.77;52.23;102014.72;6092167;23;97099;-77
2021/12/12 07:07:39;;;;;;;39.80;20.45;;;;;;;5.42;52.79;102013.66;6092091;23;99391;-78
2021/12/12 07:10:09;;;;;;;43.70;21.38;;;;;;;5.44;53.18;102015.41;6091768;23;99282;-77
2021/12/12 07:12:39;;;;;;;40.38;21.23;;;;;;;5.64;52.83;102007.66;6091239;23;96834;-77
2021/12/12 07:15:09;;;;;;;38.65;21.10;;;;;;;5.90;52.26;102019.16;6091861;23;96738;-78
2021/12/12 07:17:36;;;;;;;40.95;20.80;;;;;;;5.76;52.58;102023.44;6091812;23;98442;-78
2021/12/12 07:20:03;;;;;;;41.95;21.00;;;;;;;5.86;52.34;102014.72;6093795;23;100589;-77
2021/12/12 07:22:30;;;;;;;39.78;19.98;;;;;;;5.77;52.28;102024.31;6093710;23;97026;-77
2021/12/12 07:25:00;;;;;;;40.00;21.23;;;;;;;5.66;52.51;102026.00;6095635;23;96695;-76
2021/12/12 07:27:27;;;;;;;39.00;19.77;;;;;;;5.70;52.62;102027.78;6094213;23;102201;-77
2021/12/12 07:29:55;;;;;;;43.33;20.95;;;;;;;5.67;53.15;102022.50;6093081;23;99124;-78
2021/12/12 07:32:23;;;;;;;37.53;20.98;;;;;;;5.78;52.35;102016.44;6093463;23;96552;-77
2021/12/12 07:34:49;;;;;;;43.47;21.58;;;;;;;5.61;53.13;102036.47;6093147;23;97030;-78
2021/12/12 07:37:16;;;;;;;38.83;19.67;;;;;;;5.63;52.92;102029.50;6092512;23;98912;-78
2021/12/12 07:39:45;;;;;;;41.20;20.75;;;;;;;6.03;52.52;102035.84;6095497;23;98916;-77
2021/12/12 07:42:15;;;;;;;41.30;20.95;;;;;;;5.80;52.90;102040.94;6094507;23;97146;-78
2021/12/12 07:44:43;;;;;;;51.03;20.77;;;;;;;5.83;52.93;102040.09;6092286;23;96701;-78
2021/12/12 07:47:13;;;;;;;43.40;21.73;;;;;;;5.79;52.63;102044.44;6092638;23;99174;-78
2021/12/12 07:49:44;;;;;;;45.70;21.10;;;;;;;5.87;52.36;102048.00;6092703;23;97790;-79
2021/12/12 07:52:14;;;;;;;42.30;21.23;;;;;;;6.08;52.57;102043.72;6093599;23;96775;-77
2021/12/12 07:54:42;;;;;;;41.25;20.90;;;;;;;6.00;51.97;102038.44;6092952;23;96825;-78
2021/12/12 07:57:09;;;;;;;41.13;21.15;;;;;;;6.18;52.09;102040.22;6092820;23;98762;-78
2021/12/12 07:59:39;;;;;;;45.65;21.17;;;;;;;6.16;52.03;102045.50;6092982;23;98077;-78
2021/12/12 08:02:07;;;;;;;42.92;21.67;;;;;;;6.34;51.25;102044.66;6093319;23;96672;-77
2021/12/12 08:04:34;;;;;;;44.40;22.60;;;;;;;6.36;51.19;102043.81;6092422;23;96605;-77
2021/12/12 08:07:01;;;;;;;43.60;21.20;;;;;;;6.38;51.11;102038.53;6091358;23;99110;-79
2021/12/12 08:09:29;;;;;;;43.10;22.05;;;;;;;6.56;51.09;102033.34;6092404;23;99120;-78
2021/12/12 08:11:56;;;;;;;44.13;22.23;;;;;;;6.24;51.47;102032.38;6107974;23;96778;-78
2021/12/12 08:14:25;;;;;;;45.33;22.60;;;;;;;6.20;51.60;102028.00;6094286;23;97033;-79
2021/12/12 08:16:55;;;;;;;48.10;23.73;;;;;;;6.22;51.38;102034.13;6091508;23;98920;-77
2021/12/12 08:19:24;;;;;;;43.53;22.45;;;;;;;5.91;52.99;102034.00;6092093;23;98814;-77
2021/12/12 08:21:54;;;;;;;40.15;21.55;;;;;;;6.13;52.64;102031.47;6094193;23;96656;-78
2021/12/12 08:24:22;;;;;;;44.03;22.98;;;;;;;6.00;52.85;102028.81;6092568;23;97043;-77
2021/12/12 08:26:49;;;;;;;44.70;22.02;;;;;;;6.19;52.08;102029.75;6094217;23;98945;-78
2021/12/12 08:29:17;;;;;;;42.00;22.23;;;;;;;6.05;51.82;102030.56;6093195;23;98759;-79
2021/12/12 08:31:46;;;;;;;45.95;22.42;;;;;;;5.88;52.58;102023.53;6094844;23;96721;-78
2021/12/12 08:34:15;;;;;;;46.47;22.40;;;;;;;6.02;52.51;102022.69;6093429;23;96650;-79
2021/12/12 08:36:44;;;;;;;47.70;22.90;;;;;;;6.32;51.68;102017.53;6092903;23;99105;-77
2021/12/12 08:39:12;;;;;;;44.95;22.65;;;;;;;6.22;51.92;102021.88;6105678;23;99068;-78
2021/12/12 08:41:41;;;;;;;47.17;23.98;;;;;;;6.57;51.55;102024.56;6116096;23;96023;-79
2021/12/12 08:44:15;;;;;;;47.90;23.70;;;;;;;6.53;51.10;102016.69;6114345;23;96575;-78
2021/12/12 08:46:45;;;;;;;50.65;23.90;;;;;;;6.67;51.19;102020.22;6115436;23;98010;-78
2021/12/12 08:49:13;;;;;;;46.08;23.17;;;;;;;6.26;51.97;102015.75;6115191;23;98599;-79
2021/12/12 08:51:51;;;;;;;45.15;22.38;;;;;;;6.30;51.98;102012.25;6115711;23;96276;-79
2021/12/12 08:54:26;;;;;;;50.75;23.35;;;;;;;6.69;51.11;102016.72;6114700;23;96485;-78
2021/12/12 08:57:02;;;;;;;48.97;24.58;;;;;;;6.71;51.39;102012.31;6110806;23;96491;-79
2021/12/12 08:59:29;;;;;;;;;;;;;;;6.88;51.19;102009.72;6093959;23;99020;-77
2021/12/12 09:01:59;;;;;;;42.03;20.85;;;;;;;7.07;50.70;102008.81;6093731;23;96724;-77
2021/12/12 09:04:29;;;;;;;44.53;22.00;;;;;;;6.90;50.65;102007.94;6098355;23;96709;-78
2021/12/12 09:07:02;;;;;;;45.50;22.17;;;;;;;6.80;51.42;102004.47;6093304;23;98806;-78
2021/12/12 09:09:33;;;;;;;45.17;22.55;;;;;;;6.88;51.71;102000.94;6095933;23;98929;-79
2021/12/12 09:12:05;;;;;;;43.78;22.85;;;;;;;6.64;51.74;101999.19;6097491;23;96497;-79
2021/12/12 09:14:36;;;;;;;43.03;21.25;;;;;;;6.59;52.23;102007.06;6117671;23;95745;-78
2021/12/12 21:16:35;;;;;;;18.35;11.30;;;;;;;9.87;61.32;101874.91;6105322;22;99783;-77
2021/12/12 21:19:08;;;;;;;17.17;10.98;;;;;;;9.85;61.44;101877.56;6060661;23;97752;-77
2021/12/12 21:21:39;;;;;;;19.50;11.15;;;;;;;9.96;61.34;101874.78;6082691;23;96702;-76
2021/12/12 21:24:14;;;;;;;19.48;11.52;;;;;;;9.86;61.56;101878.44;6075818;23;96561;-76
2021/12/12 21:26:47;;;;;;;18.88;11.40;;;;;;;9.94;61.91;101884.47;6067083;23;99036;-77
2021/12/12 21:29:15;;;;;;;19.90;11.35;;;;;;;9.76;61.99;101890.91;6065020;23;98002;-76
2021/12/12 21:31:47;;;;;;;22.13;11.88;;;;;;;10.00;61.39;101885.25;6069286;23;96548;-77
2021/12/12 21:34:19;;;;;;;19.08;11.57;;;;;;;10.03;61.30;101875.56;6062274;23;96652;-78
2021/12/12 21:36:48;;;;;;;20.20;12.60;;;;;;;10.06;61.76;101883.41;6060321;23;97949;-76
2021/12/12 21:39:30;;;;;;;22.02;13.10;;;;;;;10.04;61.77;101882.59;6059535;23;99926;-76
2021/12/12 21:42:07;;;;;;;22.30;13.30;;;;;;;10.11;61.28;101894.81;6059877;23;96925;-76
2021/12/12 21:44:37;;;;;;;22.38;12.85;;;;;;;10.08;61.30;101889.56;6061398;23;96664;-78
2021/12/12 21:47:20;;;;;;;21.50;12.77;;;;;;;10.08;61.78;101895.72;6061115;23;98305;-77
2021/12/12 21:49:51;;;;;;;22.85;12.38;;;;;;;10.00;61.64;101892.31;6063432;23;99078;-77
2021/12/12 21:52:30;;;;;;;23.20;13.00;;;;;;;10.11;61.58;101886.88;6064387;23;96618;-76
2021/12/12 21:54:57;;;;;;;22.70;12.73;;;;;;;10.11;61.58;101882.44;6064690;23;96752;-77
2021/12/12 21:57:24;;;;;;;23.45;14.15;;;;;;;10.19;61.23;101893.81;6064554;23;99269;-77
2021/12/12 22:00:05;;;;;;;24.63;13.00;;;;;;;10.09;61.97;101892.19;6069176;23;98761;-78
2021/12/12 22:02:34;;;;;;;24.15;13.35;;;;;;;10.20;61.51;101894.69;6084815;23;96276;-77
2021/12/12 22:05:00;;;;;;;21.48;12.93;;;;;;;10.06;61.69;101905.41;6083711;23;96514;-77
2021/12/12 22:07:27;;;;;;;22.33;13.70;;;;;;;10.16;61.94;101904.41;6081826;23;98887;-79
2021/12/12 22:09:54;;;;;;;21.70;13.55;;;;;;;10.13;61.74;101908.84;6083350;23;101384;-79
2021/12/12 22:12:24;;;;;;;22.67;14.23;;;;;;;10.23;61.67;101905.22;6070917;23;96507;-79
2021/12/12 22:14:53;;;;;;;19.80;12.73;;;;;;;10.37;61.24;101903.22;6070037;23;96819;-78
2021/12/12 22:17:24;;;;;;;22.38;13.90;;;;;;;10.24;61.47;101906.97;6068240;23;98782;-78
2021/12/12 22:19:57;;;;;;;20.58;13.48;;;;;;;10.30;61.46;101906.88;6067092;23;100293;-78
2021/12/12 22:22:26;;;;;;;21.15;14.02;;;;;;;9.99;62.23;101906.41;6066013;23;96614;-78
2021/12/12 22:24:59;;;;;;;21.63;14.82;;;;;;;10.26;62.06;101906.03;6065188;23;97204;-78
2021/12/12 22:27:32;;;;;;;23.17;14.23;;;;;;;10.12;62.08;101907.09;6065349;23;99016;-78
2021/12/12 22:30:03;;;;;;;22.67;14.50;;;;;;;10.17;62.31;101907.94;6080125;23;98760;-80
2021/12/12 22:32:37;;;;;;;22.85;14.52;;;;;;;10.30;61.82;101914.78;6070359;23;96666;-81
2021/12/12 22:35:09;;;;;;;23.92;14.68;;;;;;;10.45;61.43;101911.88;6073103;23;96774;-78
2021/12/12 22:37:39;;;;;;;26.38;15.02;;;;;;;10.34;61.31;101909.41;6071292;23;98239;-79
2021/12/12 22:40:11;;;;;;;24.02;15.88;;;;;;;10.39;61.34;101911.97;6077131;23;97119;-78
2021/12/12 22:42:41;;;;;;;23.73;14.00;;;;;;;10.58;61.45;101908.13;6079598;23;96896;-80
2021/12/12 22:45:10;;;;;;;25.75;15.40;;;;;;;10.39;60.68;101914.63;6078568;23;96791;-81
2021/12/12 22:47:41;;;;;;;28.70;16.63;;;;;;;10.35;61.72;101911.16;6077799;23;100866;-78
2021/12/12 22:50:14;;;;;;;25.10;14.68;;;;;;;10.13;61.75;101912.34;6067304;23;97586;-78
2021/12/12 22:52:47;;;;;;;26.20;15.88;;;;;;;10.15;62.70;101915.84;6065512;23;96664;-78
2021/12/12 22:55:17;;;;;;;27.65;16.08;;;;;;;10.33;62.08;101912.97;6065286;23;96682;-79
2021/12/12 22:57:46;;;;;;;27.30;15.85;;;;;;;10.41;62.13;101910.19;6063116;23;98919;-79
2021/12/12 23:00:49;;;;;;;25.48;15.35;;;;;;;10.48;62.26;101911.84;6064334;23;98770;-79
2021/12/12 23:03:19;;;;;;;25.48;15.93;;;;;;;10.49;62.10;101918.88;6030865;23;97036;-80
2021/12/12 23:05:51;;;;;;;27.17;16.65;;;;;;;10.58;61.29;101926.63;6065713;23;96772;-78
2021/12/12 23:08:20;;;;;;;27.17;16.65;;;;;;;10.38;61.94;101924.31;6065425;23;98988;-78
2021/12/12 23:10:52;;;;;;;26.42;15.18;;;;;;;10.56;62.07;101925.81;6065550;23;98946;-78
2021/12/12 23:13:21;;;;;;;26.90;15.80;;;;;;;10.59;62.10;101920.44;6065553;23;97051;-79
2021/12/12 23:15:53;;;;;;;26.90;16.27;;;;;;;10.43;62.31;101912.81;6065286;23;97000;-78
2021/12/12 23:18:24;;;;;;;26.13;16.08;;;;;;;10.43;63.11;101923.38;6064947;23;98773;-79
2021/12/12 23:20:59;;;;;;;28.33;16.15;;;;;;;10.54;62.27;101918.78;6066371;23;97661;-79
2021/12/12 23:23:38;;;;;;;26.90;14.90;;;;;;;10.62;62.36;101920.41;6065167;23;96606;-79
2021/12/12 23:26:09;;;;;;;28.08;15.02;;;;;;;10.60;62.43;101930.13;6067142;23;96674;-79
2021/12/12 23:31:26;;;;;;;27.10;15.27;;;;;;;10.43;63.46;101924.25;6066640;23;97025;-80
2021/12/12 23:33:54;;;;;;;31.17;16.77;;;;;;;10.65;63.02;101927.41;6082588;23;96612;-80
2021/12/12 23:36:22;;;;;;;28.83;16.60;;;;;;;10.85;62.32;101932.34;6089462;23;95891;-79
2021/12/12 23:38:55;;;;;;;31.13;17.10;;;;;;;10.85;62.00;101940.28;6089309;23;97553;-78
2021/12/12 23:41:30;;;;;;;29.70;16.58;;;;;;;10.21;62.71;101928.13;6086861;23;97606;-79
2021/12/12 23:44:21;;;;;;;28.02;16.70;;;;;;;10.32;64.30;101928.81;6089858;23;95810;-78